^^
Meteo Knjazevac Station Historical Data
Daily Summary for June 23, 2022 Units:  English    Metric   Both
Daily Weekly Monthly Yearly Custom
  High: Low: Average:
Temperature: 70 °F 62.6 °F 65.9 °F
Dew Point: 62.4 °F 59.6 °F 61 °F
Humidity: 91% 77% 84%
Wind Speed: 3mph 0mph 0.6mph
Wind Gust: 9mph - -
Wind- - WSW
Pressure: 29.97 in 29.92 in -
Precipitation: 0.00 in    
Historical Graphs
 
 
Tabular Data for June 23, 2022
Time Temperature Dew Point Pressure Wind Wind Speed Wind Gust Humidity Rainfall Rate (Hourly) solar Conditions
00:10 70 °F 62.4 °F 29.97 in West 1 mph 2 mph 77% 0.00 in 0 W/m2
00:20 69.6 °F 62.1 °F 29.97 in ESE 1 mph 3 mph 77% 0.00 in 0 W/m2
00:30 69.4 °F 62.3 °F 29.97 in East 1 mph 3 mph 78% 0.00 in 0 W/m2
00:40 69.1 °F 62.3 °F 29.96 in Calm   5 mph 79% 0.00 in 0 W/m2
00:50 68.5 °F 62.1 °F 29.96 in Calm   3 mph 80% 0.00 in 0 W/m2
01:00 68.2 °F 61.8 °F 29.96 in West 1 mph 4 mph 80% 0.00 in 0 W/m2
01:10 67.8 °F 61.8 °F 29.96 in West 2 mph 3 mph 81% 0.00 in 0 W/m2
01:20 67.5 °F 61.4 °F 29.96 in Calm   3 mph 81% 0.00 in 0 W/m2
01:30 67.3 °F 61.2 °F 29.96 in Calm   3 mph 81% 0.00 in 0 W/m2
01:40 67.5 °F 61.1 °F 29.95 in Calm   3 mph 80% 0.00 in 0 W/m2
01:50 67.6 °F 61.6 °F 29.95 in SW 1 mph 5 mph 81% 0.00 in 0 W/m2
02:00 67.6 °F 61.6 °F 29.95 in Calm   2 mph 81% 0.00 in 0 W/m2
02:10 67.3 °F 61.3 °F 29.95 in SW 1 mph 2 mph 81% 0.00 in 0 W/m2
02:30 66.7 °F 61.4 °F 29.95 in West 1 mph 2 mph 83% 0.00 in 0 W/m2
02:50 66.2 °F 61.2 °F 29.94 in Calm   2 mph 84% 0.00 in 0 W/m2
03:00 66 °F 61 °F 29.94 in NNW 1 mph 3 mph 84% 0.00 in 0 W/m2
03:10 65.8 °F 61.2 °F 29.94 in West 1 mph 2 mph 85% 0.00 in 0 W/m2
03:20 65.7 °F 61.1 °F 29.93 in Calm   3 mph 85% 0.00 in 0 W/m2
03:30 65.5 °F 60.9 °F 29.93 in Calm   2 mph 85% 0.00 in 0 W/m2
03:40 65.3 °F 60.7 °F 29.93 in Calm   2 mph 85% 0.00 in 0 W/m2
03:50 65.1 °F 60.8 °F 29.94 in WSW 1 mph 3 mph 86% 0.00 in 0 W/m2
04:10 64.4 °F 60.1 °F 29.94 in WSW 1 mph 3 mph 86% 0.00 in 0 W/m2
04:20 64 °F 60.4 °F 29.94 in West 2 mph 3 mph 88% 0.00 in 0 W/m2
04:30 63.9 °F 60.3 °F 29.94 in West 1 mph 3 mph 88% 0.00 in 0 W/m2
04:40 63.9 °F 60.3 °F 29.94 in Calm   2 mph 88% 0.00 in 0 W/m2
04:50 63.7 °F 60.1 °F 29.94 in Calm   1 mph 88% 0.00 in 2 W/m2
05:00 63.7 °F 60.1 °F 29.93 in WNW 1 mph 2 mph 88% 0.00 in 5 W/m2
05:10 63.3 °F 60 °F 29.94 in NNW 1 mph 2 mph 89% 0.00 in 9 W/m2
05:30 63 °F 59.7 °F 29.93 in Calm   2 mph 89% 0.00 in 23 W/m2
05:40 62.8 °F 59.8 °F 29.92 in Calm   2 mph 90% 0.00 in 23 W/m2
05:50 62.6 °F 59.6 °F 29.93 in Calm   1 mph 90% 0.00 in 22 W/m2
06:00 62.8 °F 59.8 °F 29.92 in Calm   2 mph 90% 0.00 in 14 W/m2
06:10 63.1 °F 60.4 °F 29.96 in NNW 3 mph 9 mph 91% 0.00 in 2 W/m2
Knjazevac, Serbia
Compliments of Weather Underground - 2 mb